Calgary Springbank Airport
CYBW : now visible

Airfield :











YOU CAN JOIN US ON...

 
LOGIN :

Register | Disclaimer

   EN    FR    IT 

 









Legend :    VFR   Marginal VFR   IFR   Intensive IFR   Very Intensive IFR
Visi :
Ceiling :
>= 8 km
>= 3000ft
5 to 8 km
1000 to 3000 ft
1500m to 5 km
500 to 1000 ft
800 to 1500m
200 to 500 ft
< 800m
< 200 ft
Symbols :   Thunderstorms  Fog  Heavy snow  Heavy precipitations  Wind > 20 kt






- Airport Elevation : 3937 ft
- IATA code : YBW


CYBW - Calgary Springbank

CURRENT METAR :
  • 221138Z AUTO 35016G26KT 9SM -SN SCT017 BKN022 BKN036 OVC045 M01/M03 A2989 RMK SLP173

EXPIRED METARs :
  • 221110Z AUTO 34023G33KT 9SM -SN SCT015 BKN036 BKN042 OVC050 M01/M03 A2987 RMK SLP165
  • 221057Z AUTO 35022G33KT 7SM -SN FEW010 BKN015 BKN027 OVC050 M00/M02 A2987 RMK ICG PAST HR PRESRR SLP162
  • 221045Z AUTO 35021G30KT 3SM -SN BKN011 BKN015 OVC022 M00/M01 A2986 RMK ICG INTMT SLP158
  • 221007Z AUTO 36020G30KT 3SM -SN FEW005 BKN014 OVC019 01/M00 A2983 RMK ICG SLP144
  • 220957Z AUTO 36016G23KT 5SM RA BR SCT009 OVC014 01/M00 A2982 RMK PRESRR SLP141
  • 220942Z AUTO 01014KT 9SM -RA OVC014 04/01 A2981 RMK SLP127
  • 220900Z AUTO 36009G15KT 9SM BKN018 OVC029 04/01 A2980 RMK SLP103
  • 220856Z AUTO 36010KT 9SM BKN020 OVC029 04/01 A2980 RMK SLP123

Expired Forecast.
CZEG FIR / North America



MET'MAP, your aeronautical weather chart ! - Copyright ORBIFLY December 2007 - Disclaimer

ORBIFLY MET'MAP TEAM :

Programming & Development : Alexandra Zaïnal
Concept & original design : Baudouin d'Aumeries
Assistance for programming : Marc-Olivier Méhu
Technical & hardware support : Manuel Goepfert

Contact : metmap@orbifly.com




SOURCES & CREDITS :

   NOAA       Earth
Advisory